sensor_id;sensor_type;location;lat;lon;timestamp;P1;durP1;ratioP1;P2;durP2;ratioP2
9306;SDS011;4691;47.612;7.610;2023-04-12T00:02:02;5.80;;;3.25;;
9306;SDS011;4691;47.612;7.610;2023-04-12T00:04:28;8.88;;;3.15;;
9306;SDS011;4691;47.612;7.610;2023-04-12T00:06:54;10.18;;;3.00;;
9306;SDS011;4691;47.612;7.610;2023-04-12T00:09:20;12.60;;;3.42;;
9306;SDS011;4691;47.612;7.610;2023-04-12T00:11:45;8.30;;;3.40;;
9306;SDS011;4691;47.612;7.610;2023-04-12T00:14:11;6.15;;;2.67;;
9306;SDS011;4691;47.612;7.610;2023-04-12T00:16:36;6.28;;;3.20;;
9306;SDS011;4691;47.612;7.610;2023-04-12T00:19:03;12.05;;;3.40;;
9306;SDS011;4691;47.612;7.610;2023-04-12T00:21:28;9.35;;;2.88;;
9306;SDS011;4691;47.612;7.610;2023-04-12T00:23:54;13.25;;;3.88;;
9306;SDS011;4691;47.612;7.610;2023-04-12T00:26:20;8.68;;;3.22;;
9306;SDS011;4691;47.612;7.610;2023-04-12T00:28:46;8.30;;;3.17;;
9306;SDS011;4691;47.612;7.610;2023-04-12T00:31:11;10.00;;;3.50;;
9306;SDS011;4691;47.612;7.610;2023-04-12T00:33:37;8.15;;;3.28;;
9306;SDS011;4691;47.612;7.610;2023-04-12T00:36:02;9.50;;;3.22;;
9306;SDS011;4691;47.612;7.610;2023-04-12T00:38:28;7.50;;;3.42;;
9306;SDS011;4691;47.612;7.610;2023-04-12T00:40:53;10.07;;;3.42;;
9306;SDS011;4691;47.612;7.610;2023-04-12T00:43:18;6.03;;;3.17;;
9306;SDS011;4691;47.612;7.610;2023-04-12T00:45:47;13.20;;;3.88;;
9306;SDS011;4691;47.612;7.610;2023-04-12T00:48:13;9.30;;;3.00;;
9306;SDS011;4691;47.612;7.610;2023-04-12T00:50:40;6.22;;;2.88;;
9306;SDS011;4691;47.612;7.610;2023-04-12T00:53:05;9.98;;;3.60;;
9306;SDS011;4691;47.612;7.610;2023-04-12T00:55:33;11.80;;;3.45;;
9306;SDS011;4691;47.612;7.610;2023-04-12T00:57:59;8.32;;;3.00;;
9306;SDS011;4691;47.612;7.610;2023-04-12T01:00:25;8.02;;;3.17;;
9306;SDS011;4691;47.612;7.610;2023-04-12T01:02:51;11.95;;;3.78;;
9306;SDS011;4691;47.612;7.610;2023-04-12T01:05:18;10.43;;;3.50;;
9306;SDS011;4691;47.612;7.610;2023-04-12T01:11:02;4.38;;;2.90;;
9306;SDS011;4691;47.612;7.610;2023-04-12T01:13:44;5.63;;;2.97;;
9306;SDS011;4691;47.612;7.610;2023-04-12T01:19:01;6.43;;;2.88;;
9306;SDS011;4691;47.612;7.610;2023-04-12T01:24:01;6.95;;;3.00;;
9306;SDS011;4691;47.612;7.610;2023-04-12T01:26:45;6.57;;;3.05;;
9306;SDS011;4691;47.612;7.610;2023-04-12T01:29:20;10.13;;;3.20;;
9306;SDS011;4691;47.612;7.610;2023-04-12T01:31:53;7.05;;;3.08;;
9306;SDS011;4691;47.612;7.610;2023-04-12T01:34:22;7.47;;;3.38;;
9306;SDS011;4691;47.612;7.610;2023-04-12T01:36:50;6.55;;;3.20;;
9306;SDS011;4691;47.612;7.610;2023-04-12T01:39:16;7.13;;;3.80;;
9306;SDS011;4691;47.612;7.610;2023-04-12T01:41:42;10.27;;;3.33;;
9306;SDS011;4691;47.612;7.610;2023-04-12T01:44:12;9.82;;;3.17;;
9306;SDS011;4691;47.612;7.610;2023-04-12T01:46:38;7.63;;;3.20;;
9306;SDS011;4691;47.612;7.610;2023-04-12T01:49:04;11.82;;;4.13;;
9306;SDS011;4691;47.612;7.610;2023-04-12T01:51:47;5.63;;;3.47;;
9306;SDS011;4691;47.612;7.610;2023-04-12T01:54:18;9.00;;;3.30;;
9306;SDS011;4691;47.612;7.610;2023-04-12T01:56:49;6.85;;;3.20;;
9306;SDS011;4691;47.612;7.610;2023-04-12T01:59:21;7.50;;;3.00;;
9306;SDS011;4691;47.612;7.610;2023-04-12T02:01:50;6.38;;;2.65;;
9306;SDS011;4691;47.612;7.610;2023-04-12T02:04:16;6.63;;;3.30;;
9306;SDS011;4691;47.612;7.610;2023-04-12T02:06:43;7.30;;;2.88;;
9306;SDS011;4691;47.612;7.610;2023-04-12T02:09:10;8.40;;;3.17;;
9306;SDS011;4691;47.612;7.610;2023-04-12T02:11:35;6.75;;;3.10;;
9306;SDS011;4691;47.612;7.610;2023-04-12T02:14:01;6.95;;;2.95;;
9306;SDS011;4691;47.612;7.610;2023-04-12T02:19:30;8.70;;;3.20;;
9306;SDS011;4691;47.612;7.610;2023-04-12T02:21:56;14.02;;;4.72;;
9306;SDS011;4691;47.612;7.610;2023-04-12T02:24:22;8.10;;;3.97;;
9306;SDS011;4691;47.612;7.610;2023-04-12T02:26:47;10.00;;;4.10;;
9306;SDS011;4691;47.612;7.610;2023-04-12T02:29:13;6.03;;;3.85;;
9306;SDS011;4691;47.612;7.610;2023-04-12T02:31:39;8.82;;;4.00;;
9306;SDS011;4691;47.612;7.610;2023-04-12T02:34:05;9.35;;;4.80;;
9306;SDS011;4691;47.612;7.610;2023-04-12T02:36:31;10.13;;;5.13;;
9306;SDS011;4691;47.612;7.610;2023-04-12T02:38:56;11.70;;;4.55;;
9306;SDS011;4691;47.612;7.610;2023-04-12T02:41:22;10.85;;;4.18;;
9306;SDS011;4691;47.612;7.610;2023-04-12T02:43:48;6.03;;;3.55;;
9306;SDS011;4691;47.612;7.610;2023-04-12T02:46:15;6.50;;;3.50;;
9306;SDS011;4691;47.612;7.610;2023-04-12T02:48:43;5.80;;;3.27;;
9306;SDS011;4691;47.612;7.610;2023-04-12T02:51:09;6.03;;;3.53;;
9306;SDS011;4691;47.612;7.610;2023-04-12T02:53:34;7.22;;;4.20;;
9306;SDS011;4691;47.612;7.610;2023-04-12T02:55:59;7.93;;;4.28;;
9306;SDS011;4691;47.612;7.610;2023-04-12T02:58:25;7.93;;;4.32;;
9306;SDS011;4691;47.612;7.610;2023-04-12T03:00:51;7.22;;;4.05;;
9306;SDS011;4691;47.612;7.610;2023-04-12T03:03:17;6.85;;;4.22;;
9306;SDS011;4691;47.612;7.610;2023-04-12T03:05:42;5.28;;;3.63;;
9306;SDS011;4691;47.612;7.610;2023-04-12T03:08:11;8.55;;;3.55;;
9306;SDS011;4691;47.612;7.610;2023-04-12T03:10:37;6.18;;;3.25;;
9306;SDS011;4691;47.612;7.610;2023-04-12T03:13:03;8.70;;;3.78;;
9306;SDS011;4691;47.612;7.610;2023-04-12T03:15:29;5.63;;;3.50;;
9306;SDS011;4691;47.612;7.610;2023-04-12T03:17:54;6.97;;;3.58;;
9306;SDS011;4691;47.612;7.610;2023-04-12T03:20:19;5.47;;;3.60;;
9306;SDS011;4691;47.612;7.610;2023-04-12T03:22:45;5.40;;;3.25;;
9306;SDS011;4691;47.612;7.610;2023-04-12T03:25:10;10.70;;;3.90;;
9306;SDS011;4691;47.612;7.610;2023-04-12T03:27:36;7.45;;;3.70;;
9306;SDS011;4691;47.612;7.610;2023-04-12T03:30:02;6.10;;;3.45;;
9306;SDS011;4691;47.612;7.610;2023-04-12T03:32:27;5.30;;;2.90;;
9306;SDS011;4691;47.612;7.610;2023-04-12T03:34:53;7.88;;;3.47;;
9306;SDS011;4691;47.612;7.610;2023-04-12T03:37:19;8.25;;;3.63;;
9306;SDS011;4691;47.612;7.610;2023-04-12T03:39:44;8.15;;;3.70;;
9306;SDS011;4691;47.612;7.610;2023-04-12T03:42:12;12.48;;;3.92;;
9306;SDS011;4691;47.612;7.610;2023-04-12T03:44:37;7.40;;;3.58;;
9306;SDS011;4691;47.612;7.610;2023-04-12T03:47:03;10.50;;;3.75;;
9306;SDS011;4691;47.612;7.610;2023-04-12T03:49:28;8.07;;;3.45;;
9306;SDS011;4691;47.612;7.610;2023-04-12T03:51:54;7.53;;;3.28;;
9306;SDS011;4691;47.612;7.610;2023-04-12T03:54:21;8.50;;;3.63;;
9306;SDS011;4691;47.612;7.610;2023-04-12T03:56:47;9.80;;;4.15;;
9306;SDS011;4691;47.612;7.610;2023-04-12T03:59:12;7.35;;;4.10;;
9306;SDS011;4691;47.612;7.610;2023-04-12T04:01:38;6.78;;;3.70;;
9306;SDS011;4691;47.612;7.610;2023-04-12T04:04:05;6.53;;;3.75;;
9306;SDS011;4691;47.612;7.610;2023-04-12T04:06:31;6.00;;;3.58;;
9306;SDS011;4691;47.612;7.610;2023-04-12T04:08:57;6.90;;;3.75;;
9306;SDS011;4691;47.612;7.610;2023-04-12T04:11:22;12.40;;;3.88;;
9306;SDS011;4691;47.612;7.610;2023-04-12T04:13:48;9.70;;;3.85;;
9306;SDS011;4691;47.612;7.610;2023-04-12T04:16:14;7.88;;;3.70;;
9306;SDS011;4691;47.612;7.610;2023-04-12T04:18:39;6.32;;;3.50;;
9306;SDS011;4691;47.612;7.610;2023-04-12T04:21:05;5.93;;;3.90;;
9306;SDS011;4691;47.612;7.610;2023-04-12T04:23:31;5.05;;;3.60;;
9306;SDS011;4691;47.612;7.610;2023-04-12T04:26:03;7.03;;;3.53;;
9306;SDS011;4691;47.612;7.610;2023-04-12T04:28:35;8.90;;;3.85;;
9306;SDS011;4691;47.612;7.610;2023-04-12T04:31:04;11.87;;;4.43;;
9306;SDS011;4691;47.612;7.610;2023-04-12T04:33:33;6.18;;;3.60;;
9306;SDS011;4691;47.612;7.610;2023-04-12T04:35:58;9.57;;;4.28;;
9306;SDS011;4691;47.612;7.610;2023-04-12T04:38:23;6.47;;;3.78;;
9306;SDS011;4691;47.612;7.610;2023-04-12T04:40:50;8.60;;;4.20;;
9306;SDS011;4691;47.612;7.610;2023-04-12T04:43:19;10.47;;;4.27;;
9306;SDS011;4691;47.612;7.610;2023-04-12T04:45:45;7.45;;;3.75;;
9306;SDS011;4691;47.612;7.610;2023-04-12T04:48:14;9.80;;;3.72;;
9306;SDS011;4691;47.612;7.610;2023-04-12T04:50:40;11.75;;;4.32;;
9306;SDS011;4691;47.612;7.610;2023-04-12T04:53:05;8.02;;;4.20;;
9306;SDS011;4691;47.612;7.610;2023-04-12T04:55:31;9.77;;;4.30;;
9306;SDS011;4691;47.612;7.610;2023-04-12T04:57:56;6.13;;;3.80;;
9306;SDS011;4691;47.612;7.610;2023-04-12T05:00:21;6.95;;;3.80;;
9306;SDS011;4691;47.612;7.610;2023-04-12T05:02:49;7.70;;;4.32;;
9306;SDS011;4691;47.612;7.610;2023-04-12T05:05:15;9.48;;;4.60;;
9306;SDS011;4691;47.612;7.610;2023-04-12T05:07:41;8.25;;;4.20;;
9306;SDS011;4691;47.612;7.610;2023-04-12T05:10:09;9.65;;;4.57;;
9306;SDS011;4691;47.612;7.610;2023-04-12T05:12:35;10.43;;;4.80;;
9306;SDS011;4691;47.612;7.610;2023-04-12T05:15:03;15.32;;;4.75;;
9306;SDS011;4691;47.612;7.610;2023-04-12T05:17:28;10.27;;;5.97;;
9306;SDS011;4691;47.612;7.610;2023-04-12T05:19:54;11.68;;;5.15;;
9306;SDS011;4691;47.612;7.610;2023-04-12T05:22:20;11.75;;;5.18;;
9306;SDS011;4691;47.612;7.610;2023-04-12T05:24:48;9.48;;;4.80;;
9306;SDS011;4691;47.612;7.610;2023-04-12T05:27:14;10.43;;;5.18;;
9306;SDS011;4691;47.612;7.610;2023-04-12T05:29:40;9.68;;;4.72;;
9306;SDS011;4691;47.612;7.610;2023-04-12T05:32:09;13.93;;;6.13;;
9306;SDS011;4691;47.612;7.610;2023-04-12T05:34:34;7.20;;;4.85;;
9306;SDS011;4691;47.612;7.610;2023-04-12T05:37:01;7.47;;;5.07;;
9306;SDS011;4691;47.612;7.610;2023-04-12T05:39:27;9.43;;;4.55;;
9306;SDS011;4691;47.612;7.610;2023-04-12T05:41:52;7.28;;;4.40;;
9306;SDS011;4691;47.612;7.610;2023-04-12T05:44:18;10.77;;;4.50;;
9306;SDS011;4691;47.612;7.610;2023-04-12T05:46:43;7.20;;;4.57;;
9306;SDS011;4691;47.612;7.610;2023-04-12T05:49:08;6.72;;;3.95;;
9306;SDS011;4691;47.612;7.610;2023-04-12T05:51:34;6.97;;;4.20;;
9306;SDS011;4691;47.612;7.610;2023-04-12T05:54:00;11.23;;;4.28;;
9306;SDS011;4691;47.612;7.610;2023-04-12T05:56:25;5.93;;;4.10;;
9306;SDS011;4691;47.612;7.610;2023-04-12T05:58:51;6.93;;;3.60;;
9306;SDS011;4691;47.612;7.610;2023-04-12T06:01:16;8.70;;;4.30;;
9306;SDS011;4691;47.612;7.610;2023-04-12T06:03:43;8.52;;;4.20;;
9306;SDS011;4691;47.612;7.610;2023-04-12T06:06:08;8.82;;;4.63;;
9306;SDS011;4691;47.612;7.610;2023-04-12T06:08:34;6.63;;;4.40;;
9306;SDS011;4691;47.612;7.610;2023-04-12T06:11:01;7.32;;;4.28;;
9306;SDS011;4691;47.612;7.610;2023-04-12T06:13:27;7.97;;;4.15;;
9306;SDS011;4691;47.612;7.610;2023-04-12T06:15:52;6.78;;;4.00;;
9306;SDS011;4691;47.612;7.610;2023-04-12T06:18:18;10.30;;;4.28;;
9306;SDS011;4691;47.612;7.610;2023-04-12T06:20:43;8.75;;;4.50;;
9306;SDS011;4691;47.612;7.610;2023-04-12T06:23:08;11.98;;;4.55;;
9306;SDS011;4691;47.612;7.610;2023-04-12T06:25:33;6.13;;;3.88;;
9306;SDS011;4691;47.612;7.610;2023-04-12T06:27:59;8.25;;;3.88;;
9306;SDS011;4691;47.612;7.610;2023-04-12T06:30:24;10.07;;;4.95;;
9306;SDS011;4691;47.612;7.610;2023-04-12T06:32:50;9.00;;;4.82;;
9306;SDS011;4691;47.612;7.610;2023-04-12T06:35:15;7.88;;;4.07;;
9306;SDS011;4691;47.612;7.610;2023-04-12T06:37:41;7.50;;;4.38;;
9306;SDS011;4691;47.612;7.610;2023-04-12T06:40:06;8.02;;;4.60;;
9306;SDS011;4691;47.612;7.610;2023-04-12T06:42:32;6.40;;;4.30;;
9306;SDS011;4691;47.612;7.610;2023-04-12T06:44:57;8.43;;;4.15;;
9306;SDS011;4691;47.612;7.610;2023-04-12T06:47:23;8.32;;;4.25;;
9306;SDS011;4691;47.612;7.610;2023-04-12T06:49:49;4.78;;;3.65;;
9306;SDS011;4691;47.612;7.610;2023-04-12T06:52:16;10.30;;;4.45;;
9306;SDS011;4691;47.612;7.610;2023-04-12T06:54:42;6.20;;;3.97;;
9306;SDS011;4691;47.612;7.610;2023-04-12T06:57:08;5.40;;;3.85;;
9306;SDS011;4691;47.612;7.610;2023-04-12T06:59:35;6.85;;;4.65;;
9306;SDS011;4691;47.612;7.610;2023-04-12T07:02:00;9.40;;;4.28;;
9306;SDS011;4691;47.612;7.610;2023-04-12T07:04:25;6.90;;;4.60;;
9306;SDS011;4691;47.612;7.610;2023-04-12T07:06:50;7.15;;;4.22;;
9306;SDS011;4691;47.612;7.610;2023-04-12T07:09:16;9.05;;;4.88;;
9306;SDS011;4691;47.612;7.610;2023-04-12T07:11:41;8.88;;;5.65;;
9306;SDS011;4691;47.612;7.610;2023-04-12T07:14:07;6.25;;;4.30;;
9306;SDS011;4691;47.612;7.610;2023-04-12T07:16:32;6.82;;;4.22;;
9306;SDS011;4691;47.612;7.610;2023-04-12T07:18:58;5.75;;;4.63;;
9306;SDS011;4691;47.612;7.610;2023-04-12T07:21:24;8.52;;;4.97;;
9306;SDS011;4691;47.612;7.610;2023-04-12T07:23:50;9.10;;;4.75;;
9306;SDS011;4691;47.612;7.610;2023-04-12T07:26:15;8.30;;;5.28;;
9306;SDS011;4691;47.612;7.610;2023-04-12T07:28:42;8.73;;;5.07;;
9306;SDS011;4691;47.612;7.610;2023-04-12T07:31:08;11.00;;;5.28;;
9306;SDS011;4691;47.612;7.610;2023-04-12T07:33:36;7.50;;;4.95;;
9306;SDS011;4691;47.612;7.610;2023-04-12T07:36:01;6.85;;;4.95;;
9306;SDS011;4691;47.612;7.610;2023-04-12T07:38:28;7.15;;;4.35;;
9306;SDS011;4691;47.612;7.610;2023-04-12T07:40:54;16.88;;;6.03;;
9306;SDS011;4691;47.612;7.610;2023-04-12T07:43:20;6.47;;;4.20;;
9306;SDS011;4691;47.612;7.610;2023-04-12T07:45:45;10.20;;;4.93;;
9306;SDS011;4691;47.612;7.610;2023-04-12T07:48:11;6.60;;;4.05;;
9306;SDS011;4691;47.612;7.610;2023-04-12T07:50:36;5.60;;;3.60;;
9306;SDS011;4691;47.612;7.610;2023-04-12T07:55:44;6.25;;;4.03;;
9306;SDS011;4691;47.612;7.610;2023-04-12T07:58:10;6.50;;;3.38;;
9306;SDS011;4691;47.612;7.610;2023-04-12T08:04:03;7.85;;;4.05;;
9306;SDS011;4691;47.612;7.610;2023-04-12T08:06:29;9.10;;;4.13;;
9306;SDS011;4691;47.612;7.610;2023-04-12T08:08:55;6.28;;;3.95;;
9306;SDS011;4691;47.612;7.610;2023-04-12T08:11:20;6.15;;;3.63;;
9306;SDS011;4691;47.612;7.610;2023-04-12T08:13:45;9.35;;;3.55;;
9306;SDS011;4691;47.612;7.610;2023-04-12T08:16:11;11.23;;;3.95;;
9306;SDS011;4691;47.612;7.610;2023-04-12T08:18:37;5.45;;;3.38;;
9306;SDS011;4691;47.612;7.610;2023-04-12T08:21:02;5.93;;;3.58;;
9306;SDS011;4691;47.612;7.610;2023-04-12T08:23:28;7.63;;;3.78;;
9306;SDS011;4691;47.612;7.610;2023-04-12T08:25:53;5.43;;;3.75;;
9306;SDS011;4691;47.612;7.610;2023-04-12T08:28:26;7.63;;;3.20;;
9306;SDS011;4691;47.612;7.610;2023-04-12T08:30:52;4.85;;;3.17;;
9306;SDS011;4691;47.612;7.610;2023-04-12T08:33:18;6.75;;;3.22;;
9306;SDS011;4691;47.612;7.610;2023-04-12T08:35:43;6.35;;;3.25;;
9306;SDS011;4691;47.612;7.610;2023-04-12T08:38:08;6.88;;;3.88;;
9306;SDS011;4691;47.612;7.610;2023-04-12T08:40:34;8.45;;;4.32;;
9306;SDS011;4691;47.612;7.610;2023-04-12T08:43:00;9.10;;;4.28;;
9306;SDS011;4691;47.612;7.610;2023-04-12T08:45:28;9.55;;;4.13;;
9306;SDS011;4691;47.612;7.610;2023-04-12T08:47:53;10.93;;;3.45;;
9306;SDS011;4691;47.612;7.610;2023-04-12T08:50:19;9.70;;;4.47;;
9306;SDS011;4691;47.612;7.610;2023-04-12T08:52:45;63.35;;;10.55;;
9306;SDS011;4691;47.612;7.610;2023-04-12T08:55:13;33.08;;;7.10;;
9306;SDS011;4691;47.612;7.610;2023-04-12T08:57:39;17.65;;;4.88;;
9306;SDS011;4691;47.612;7.610;2023-04-12T09:00:06;7.50;;;3.80;;
9306;SDS011;4691;47.612;7.610;2023-04-12T09:02:33;9.63;;;3.75;;
9306;SDS011;4691;47.612;7.610;2023-04-12T09:05:00;6.03;;;3.40;;
9306;SDS011;4691;47.612;7.610;2023-04-12T09:07:25;12.27;;;4.72;;
9306;SDS011;4691;47.612;7.610;2023-04-12T09:09:51;10.18;;;4.38;;
9306;SDS011;4691;47.612;7.610;2023-04-12T09:12:17;7.72;;;3.70;;
9306;SDS011;4691;47.612;7.610;2023-04-12T09:14:46;6.40;;;3.35;;
9306;SDS011;4691;47.612;7.610;2023-04-12T09:17:24;6.45;;;3.30;;
9306;SDS011;4691;47.612;7.610;2023-04-12T09:19:51;8.57;;;3.92;;
9306;SDS011;4691;47.612;7.610;2023-04-12T09:22:30;7.95;;;3.35;;
9306;SDS011;4691;47.612;7.610;2023-04-12T09:24:57;6.90;;;3.55;;
9306;SDS011;4691;47.612;7.610;2023-04-12T09:27:22;7.53;;;3.78;;
9306;SDS011;4691;47.612;7.610;2023-04-12T09:29:49;7.85;;;3.30;;
9306;SDS011;4691;47.612;7.610;2023-04-12T09:32:15;10.55;;;3.88;;
9306;SDS011;4691;47.612;7.610;2023-04-12T09:34:55;9.23;;;3.70;;
9306;SDS011;4691;47.612;7.610;2023-04-12T09:37:22;8.88;;;3.60;;
9306;SDS011;4691;47.612;7.610;2023-04-12T09:39:47;8.05;;;3.80;;
9306;SDS011;4691;47.612;7.610;2023-04-12T09:42:24;7.30;;;3.58;;
9306;SDS011;4691;47.612;7.610;2023-04-12T09:44:49;10.05;;;4.40;;
9306;SDS011;4691;47.612;7.610;2023-04-12T09:47:15;8.27;;;3.42;;
9306;SDS011;4691;47.612;7.610;2023-04-12T09:49:41;8.90;;;4.22;;
9306;SDS011;4691;47.612;7.610;2023-04-12T09:52:09;9.20;;;3.08;;
9306;SDS011;4691;47.612;7.610;2023-04-12T09:54:46;8.60;;;3.00;;
9306;SDS011;4691;47.612;7.610;2023-04-12T09:57:16;8.73;;;2.55;;
9306;SDS011;4691;47.612;7.610;2023-04-12T09:59:43;7.30;;;2.50;;
9306;SDS011;4691;47.612;7.610;2023-04-12T10:02:15;11.00;;;2.60;;
9306;SDS011;4691;47.612;7.610;2023-04-12T10:04:42;6.13;;;2.45;;
9306;SDS011;4691;47.612;7.610;2023-04-12T10:07:08;8.00;;;2.80;;
9306;SDS011;4691;47.612;7.610;2023-04-12T10:09:36;6.55;;;2.35;;
9306;SDS011;4691;47.612;7.610;2023-04-12T10:12:02;9.43;;;3.03;;
9306;SDS011;4691;47.612;7.610;2023-04-12T10:14:28;5.90;;;2.35;;
9306;SDS011;4691;47.612;7.610;2023-04-12T10:16:59;10.32;;;3.22;;
9306;SDS011;4691;47.612;7.610;2023-04-12T10:19:26;6.95;;;3.10;;
9306;SDS011;4691;47.612;7.610;2023-04-12T10:21:53;12.15;;;2.95;;
9306;SDS011;4691;47.612;7.610;2023-04-12T10:24:22;5.55;;;2.97;;
9306;SDS011;4691;47.612;7.610;2023-04-12T10:26:48;4.90;;;2.13;;
9306;SDS011;4691;47.612;7.610;2023-04-12T10:29:20;7.68;;;2.50;;
9306;SDS011;4691;47.612;7.610;2023-04-12T10:31:54;7.67;;;2.57;;
9306;SDS011;4691;47.612;7.610;2023-04-12T10:34:40;6.30;;;2.80;;
9306;SDS011;4691;47.612;7.610;2023-04-12T10:37:06;9.35;;;3.88;;
9306;SDS011;4691;47.612;7.610;2023-04-12T10:39:36;12.35;;;5.47;;
9306;SDS011;4691;47.612;7.610;2023-04-12T10:44:50;3.28;;;2.20;;
9306;SDS011;4691;47.612;7.610;2023-04-12T10:50:19;3.83;;;2.03;;
9306;SDS011;4691;47.612;7.610;2023-04-12T10:55:42;4.07;;;1.70;;
9306;SDS011;4691;47.612;7.610;2023-04-12T10:58:08;3.70;;;1.95;;
9306;SDS011;4691;47.612;7.610;2023-04-12T11:03:35;6.50;;;2.03;;
9306;SDS011;4691;47.612;7.610;2023-04-12T11:08:27;4.03;;;1.70;;
9306;SDS011;4691;47.612;7.610;2023-04-12T11:11:00;4.80;;;1.77;;
9306;SDS011;4691;47.612;7.610;2023-04-12T11:13:28;5.40;;;2.20;;
9306;SDS011;4691;47.612;7.610;2023-04-12T11:16:00;3.75;;;1.92;;
9306;SDS011;4691;47.612;7.610;2023-04-12T11:18:29;7.00;;;2.00;;
9306;SDS011;4691;47.612;7.610;2023-04-12T11:20:56;7.43;;;2.22;;
9306;SDS011;4691;47.612;7.610;2023-04-12T11:23:22;3.70;;;2.15;;
9306;SDS011;4691;47.612;7.610;2023-04-12T11:25:48;2.20;;;1.50;;
9306;SDS011;4691;47.612;7.610;2023-04-12T11:28:17;5.18;;;1.60;;
9306;SDS011;4691;47.612;7.610;2023-04-12T11:30:53;4.28;;;1.80;;
9306;SDS011;4691;47.612;7.610;2023-04-12T11:33:31;4.32;;;1.52;;
9306;SDS011;4691;47.612;7.610;2023-04-12T11:35:57;6.10;;;1.65;;
9306;SDS011;4691;47.612;7.610;2023-04-12T11:38:23;9.60;;;4.43;;
9306;SDS011;4691;47.612;7.610;2023-04-12T11:40:48;6.32;;;2.72;;
9306;SDS011;4691;47.612;7.610;2023-04-12T11:43:20;14.25;;;6.07;;
9306;SDS011;4691;47.612;7.610;2023-04-12T11:45:46;11.63;;;3.92;;
9306;SDS011;4691;47.612;7.610;2023-04-12T11:48:11;6.63;;;2.58;;
9306;SDS011;4691;47.612;7.610;2023-04-12T11:50:36;6.90;;;2.60;;
9306;SDS011;4691;47.612;7.610;2023-04-12T11:53:10;4.97;;;2.08;;
9306;SDS011;4691;47.612;7.610;2023-04-12T11:55:36;3.40;;;1.40;;
9306;SDS011;4691;47.612;7.610;2023-04-12T11:58:02;3.45;;;1.80;;
9306;SDS011;4691;47.612;7.610;2023-04-12T12:00:27;3.85;;;1.60;;
9306;SDS011;4691;47.612;7.610;2023-04-12T12:02:55;6.78;;;1.70;;
9306;SDS011;4691;47.612;7.610;2023-04-12T12:05:20;4.75;;;1.70;;
9306;SDS011;4691;47.612;7.610;2023-04-12T12:07:46;4.10;;;1.50;;
9306;SDS011;4691;47.612;7.610;2023-04-12T12:10:11;3.60;;;2.63;;
9306;SDS011;4691;47.612;7.610;2023-04-12T12:12:37;4.80;;;1.60;;
9306;SDS011;4691;47.612;7.610;2023-04-12T12:15:02;3.60;;;1.33;;
9306;SDS011;4691;47.612;7.610;2023-04-12T12:17:27;5.65;;;1.55;;
9306;SDS011;4691;47.612;7.610;2023-04-12T12:19:55;3.40;;;1.48;;
9306;SDS011;4691;47.612;7.610;2023-04-12T12:22:21;3.60;;;1.77;;
9306;SDS011;4691;47.612;7.610;2023-04-12T12:24:57;6.38;;;2.13;;
9306;SDS011;4691;47.612;7.610;2023-04-12T12:29:59;6.85;;;2.40;;
9306;SDS011;4691;47.612;7.610;2023-04-12T12:32:25;8.32;;;2.60;;
9306;SDS011;4691;47.612;7.610;2023-04-12T12:34:57;5.50;;;1.67;;
9306;SDS011;4691;47.612;7.610;2023-04-12T12:37:23;6.97;;;2.88;;
9306;SDS011;4691;47.612;7.610;2023-04-12T12:40:09;1.50;;;1.10;;
9306;SDS011;4691;47.612;7.610;2023-04-12T12:42:42;2.20;;;1.17;;
9306;SDS011;4691;47.612;7.610;2023-04-12T12:45:08;3.40;;;1.52;;
9306;SDS011;4691;47.612;7.610;2023-04-12T12:47:44;3.78;;;1.27;;
9306;SDS011;4691;47.612;7.610;2023-04-12T12:50:10;3.58;;;1.10;;
9306;SDS011;4691;47.612;7.610;2023-04-12T12:52:38;2.40;;;1.58;;
9306;SDS011;4691;47.612;7.610;2023-04-12T12:55:03;1.70;;;1.10;;
9306;SDS011;4691;47.612;7.610;2023-04-12T12:57:29;2.85;;;1.30;;
9306;SDS011;4691;47.612;7.610;2023-04-12T12:59:55;2.92;;;0.90;;
9306;SDS011;4691;47.612;7.610;2023-04-12T13:02:21;3.08;;;1.10;;
9306;SDS011;4691;47.612;7.610;2023-04-12T13:04:46;3.33;;;0.90;;
9306;SDS011;4691;47.612;7.610;2023-04-12T13:07:11;4.15;;;1.10;;
9306;SDS011;4691;47.612;7.610;2023-04-12T13:09:36;3.63;;;0.98;;
9306;SDS011;4691;47.612;7.610;2023-04-12T13:12:02;2.20;;;1.05;;
9306;SDS011;4691;47.612;7.610;2023-04-12T13:14:28;3.13;;;0.93;;
9306;SDS011;4691;47.612;7.610;2023-04-12T13:16:53;2.13;;;0.85;;
9306;SDS011;4691;47.612;7.610;2023-04-12T13:19:18;0.93;;;0.80;;
9306;SDS011;4691;47.612;7.610;2023-04-12T13:21:43;3.70;;;1.02;;
9306;SDS011;4691;47.612;7.610;2023-04-12T13:24:09;2.63;;;0.60;;
9306;SDS011;4691;47.612;7.610;2023-04-12T13:26:34;3.03;;;0.80;;
9306;SDS011;4691;47.612;7.610;2023-04-12T13:28:59;5.32;;;1.00;;
9306;SDS011;4691;47.612;7.610;2023-04-12T13:31:25;2.47;;;1.15;;
9306;SDS011;4691;47.612;7.610;2023-04-12T13:33:50;1.95;;;0.85;;
9306;SDS011;4691;47.612;7.610;2023-04-12T13:36:16;2.75;;;1.15;;
9306;SDS011;4691;47.612;7.610;2023-04-12T13:38:41;2.20;;;0.75;;
9306;SDS011;4691;47.612;7.610;2023-04-12T13:41:06;3.03;;;0.95;;
9306;SDS011;4691;47.612;7.610;2023-04-12T13:43:32;1.58;;;1.00;;
9306;SDS011;4691;47.612;7.610;2023-04-12T13:45:57;1.20;;;0.80;;
9306;SDS011;4691;47.612;7.610;2023-04-12T13:48:23;2.03;;;1.23;;
9306;SDS011;4691;47.612;7.610;2023-04-12T13:50:48;2.67;;;0.90;;
9306;SDS011;4691;47.612;7.610;2023-04-12T13:53:14;1.98;;;1.13;;
9306;SDS011;4691;47.612;7.610;2023-04-12T13:55:40;2.80;;;1.30;;
9306;SDS011;4691;47.612;7.610;2023-04-12T13:58:05;3.75;;;2.40;;
9306;SDS011;4691;47.612;7.610;2023-04-12T14:00:30;1.20;;;1.00;;
9306;SDS011;4691;47.612;7.610;2023-04-12T14:02:56;3.40;;;1.10;;
9306;SDS011;4691;47.612;7.610;2023-04-12T14:05:21;2.20;;;0.90;;
9306;SDS011;4691;47.612;7.610;2023-04-12T14:07:46;2.35;;;1.20;;
9306;SDS011;4691;47.612;7.610;2023-04-12T14:10:13;4.20;;;1.23;;
9306;SDS011;4691;47.612;7.610;2023-04-12T14:12:39;8.15;;;1.13;;
9306;SDS011;4691;47.612;7.610;2023-04-12T14:15:04;5.70;;;1.27;;
9306;SDS011;4691;47.612;7.610;2023-04-12T14:17:30;3.70;;;1.13;;
9306;SDS011;4691;47.612;7.610;2023-04-12T14:19:56;2.47;;;1.20;;
9306;SDS011;4691;47.612;7.610;2023-04-12T14:22:22;1.77;;;1.33;;
9306;SDS011;4691;47.612;7.610;2023-04-12T14:24:48;3.22;;;1.00;;
9306;SDS011;4691;47.612;7.610;2023-04-12T14:27:13;1.30;;;0.73;;
9306;SDS011;4691;47.612;7.610;2023-04-12T14:29:39;4.40;;;1.75;;
9306;SDS011;4691;47.612;7.610;2023-04-12T14:32:04;1.60;;;1.15;;
9306;SDS011;4691;47.612;7.610;2023-04-12T14:34:29;1.77;;;1.10;;
9306;SDS011;4691;47.612;7.610;2023-04-12T14:36:55;2.85;;;1.20;;
9306;SDS011;4691;47.612;7.610;2023-04-12T14:39:20;2.25;;;1.35;;
9306;SDS011;4691;47.612;7.610;2023-04-12T14:41:48;8.77;;;4.03;;
9306;SDS011;4691;47.612;7.610;2023-04-12T14:44:13;2.00;;;1.02;;
9306;SDS011;4691;47.612;7.610;2023-04-12T14:46:38;3.00;;;1.10;;
9306;SDS011;4691;47.612;7.610;2023-04-12T14:49:04;6.43;;;2.42;;
9306;SDS011;4691;47.612;7.610;2023-04-12T14:51:29;6.65;;;2.00;;
9306;SDS011;4691;47.612;7.610;2023-04-12T14:53:56;4.78;;;1.50;;
9306;SDS011;4691;47.612;7.610;2023-04-12T14:56:21;1.10;;;0.80;;
9306;SDS011;4691;47.612;7.610;2023-04-12T14:58:49;1.92;;;1.10;;
9306;SDS011;4691;47.612;7.610;2023-04-12T15:01:17;2.15;;;1.35;;
9306;SDS011;4691;47.612;7.610;2023-04-12T15:03:42;1.50;;;1.10;;
9306;SDS011;4691;47.612;7.610;2023-04-12T15:06:08;6.40;;;1.23;;
9306;SDS011;4691;47.612;7.610;2023-04-12T15:08:34;2.10;;;0.90;;
9306;SDS011;4691;47.612;7.610;2023-04-12T15:11:06;2.10;;;1.05;;
9306;SDS011;4691;47.612;7.610;2023-04-12T15:13:33;1.58;;;0.93;;
9306;SDS011;4691;47.612;7.610;2023-04-12T15:16:00;1.13;;;0.88;;
9306;SDS011;4691;47.612;7.610;2023-04-12T15:18:25;1.58;;;1.00;;
9306;SDS011;4691;47.612;7.610;2023-04-12T15:20:51;1.85;;;0.80;;
9306;SDS011;4691;47.612;7.610;2023-04-12T15:23:16;3.50;;;1.52;;
9306;SDS011;4691;47.612;7.610;2023-04-12T15:25:41;6.10;;;2.80;;
9306;SDS011;4691;47.612;7.610;2023-04-12T15:28:06;2.40;;;1.20;;
9306;SDS011;4691;47.612;7.610;2023-04-12T15:30:32;5.65;;;2.30;;
9306;SDS011;4691;47.612;7.610;2023-04-12T15:32:57;7.03;;;2.25;;
9306;SDS011;4691;47.612;7.610;2023-04-12T15:35:23;4.30;;;2.28;;
9306;SDS011;4691;47.612;7.610;2023-04-12T15:37:48;5.32;;;1.88;;
9306;SDS011;4691;47.612;7.610;2023-04-12T15:40:14;2.92;;;1.48;;
9306;SDS011;4691;47.612;7.610;2023-04-12T15:42:44;4.20;;;1.10;;
9306;SDS011;4691;47.612;7.610;2023-04-12T15:45:09;3.60;;;1.23;;